createdAt,value
2022-09-01T13:39:50.635Z,29.40
2022-09-01T13:42:21.322Z,30.02
2022-09-01T13:44:55.188Z,30.00
2022-09-01T13:47:29.290Z,29.60
2022-09-01T13:50:11.106Z,28.05
2022-09-01T13:52:55.069Z,29.30
2022-09-01T13:55:29.597Z,33.72
2022-09-01T13:58:01.120Z,32.75
2022-09-01T14:00:34.405Z,30.08
2022-09-01T14:03:11.831Z,29.98
2022-09-01T14:05:49.758Z,27.95
2022-09-01T14:08:23.181Z,29.35
2022-09-01T14:10:55.623Z,28.58
2022-09-01T14:13:27.529Z,28.17
2022-09-01T14:16:00.796Z,31.40
2022-09-01T14:18:35.124Z,29.20
2022-09-01T14:21:05.725Z,30.10
2022-09-01T14:23:35.645Z,28.50
2022-09-01T14:26:05.969Z,28.25
2022-09-01T14:28:35.909Z,30.05
2022-09-01T14:31:11.905Z,27.38
2022-09-01T14:33:43.027Z,29.95
2022-09-01T14:36:22.112Z,28.83
2022-09-01T14:38:53.648Z,25.90
2022-09-01T14:41:27.327Z,27.70
2022-09-01T14:44:03.242Z,27.40
2022-09-01T14:46:36.378Z,27.15
2022-09-01T14:49:07.100Z,25.77
2022-09-01T14:54:30.566Z,25.90
2022-09-01T14:59:50.675Z,26.02
2022-09-01T15:02:23.189Z,24.35
2022-09-01T15:04:53.592Z,22.70
2022-09-01T15:07:24.325Z,22.07
2022-09-01T15:09:54.976Z,20.90
2022-09-01T15:12:25.090Z,22.77
2022-09-01T15:14:55.402Z,21.90
2022-09-01T15:17:25.713Z,22.27
2022-09-01T15:19:56.656Z,21.83
2022-09-01T15:22:26.823Z,21.20
2022-09-01T15:24:56.854Z,22.55
2022-09-01T15:27:26.807Z,20.52
2022-09-01T15:29:58.112Z,22.55
2022-09-01T15:35:00.609Z,20.67
2022-09-01T15:37:30.725Z,22.45
2022-09-01T15:40:00.721Z,21.02
2022-09-01T15:42:30.755Z,23.42
2022-09-01T15:45:01.767Z,24.02
2022-09-01T15:47:33.384Z,23.67
2022-09-01T15:50:03.710Z,24.35
2022-09-01T15:52:36.451Z,22.70
2022-09-01T15:55:07.012Z,22.65
2022-09-01T15:57:37.386Z,23.17
2022-09-01T16:00:09.739Z,22.60
2022-09-01T16:02:41.852Z,22.85
2022-09-01T16:05:13.749Z,22.95
2022-09-01T16:07:46.025Z,23.13
2022-09-01T16:10:16.595Z,23.55
2022-09-01T16:12:50.142Z,22.88
2022-09-01T16:15:24.089Z,21.83
2022-09-01T16:18:00.592Z,22.33
2022-09-01T16:20:50.882Z,22.20
2022-09-01T16:23:25.634Z,22.23
2022-09-01T16:25:56.688Z,21.33
2022-09-01T16:28:33.152Z,21.17
2022-09-01T16:31:21.339Z,22.02
2022-09-01T16:34:00.220Z,22.52
2022-09-01T16:36:43.519Z,21.52
2022-09-01T16:39:19.387Z,22.85
2022-09-01T16:42:24.527Z,23.52
2022-09-01T16:45:29.920Z,25.90
2022-09-01T16:48:13.963Z,26.08
2022-09-01T16:50:54.551Z,29.42
2022-09-01T16:53:56.131Z,31.92
2022-09-01T16:56:26.122Z,31.63
2022-09-01T16:59:14.300Z,33.15
2022-09-01T17:01:59.074Z,34.17
2022-09-01T17:04:44.849Z,32.85
2022-09-01T17:07:26.426Z,34.67
2022-09-01T17:10:09.861Z,34.20
2022-09-01T17:12:58.131Z,34.78
2022-09-01T17:15:40.377Z,37.22
2022-09-01T17:18:40.359Z,34.67
2022-09-01T17:24:19.292Z,33.45
2022-09-01T17:27:29.279Z,33.88
2022-09-01T17:32:34.830Z,30.05
2022-09-01T17:38:21.289Z,27.85
2022-09-01T17:41:16.136Z,28.88
2022-09-01T17:44:20.119Z,26.88
2022-09-01T17:47:14.791Z,28.02
2022-09-01T17:50:01.562Z,27.05
2022-09-01T17:53:03.384Z,26.90
2022-09-01T17:55:52.467Z,28.92
2022-09-01T17:58:58.024Z,27.33
2022-09-01T18:01:44.440Z,27.95
2022-09-01T18:04:29.170Z,28.80
2022-09-01T18:07:11.877Z,27.10
2022-09-01T18:09:58.380Z,27.02
2022-09-01T18:12:37.408Z,24.00
2022-09-01T18:15:18.871Z,22.95
2022-09-01T18:20:30.202Z,23.25
2022-09-01T18:23:15.060Z,22.27
2022-09-01T18:26:14.351Z,22.00
2022-09-01T18:28:44.665Z,20.80
2022-09-01T18:31:30.315Z,20.90
2022-09-01T18:34:06.563Z,21.63
2022-09-01T18:36:54.786Z,22.42
2022-09-01T18:39:41.581Z,20.88
2022-09-01T18:42:14.618Z,20.92
2022-09-01T18:45:07.529Z,20.52
2022-09-01T18:47:56.825Z,20.73
2022-09-01T18:51:02.225Z,19.85
2022-09-01T18:53:37.688Z,20.23
2022-09-01T18:56:19.123Z,20.23
2022-09-01T19:02:02.152Z,20.15
2022-09-01T19:04:37.900Z,19.70
2022-09-01T19:07:41.885Z,19.67
2022-09-01T19:10:51.421Z,20.30
2022-09-01T19:13:34.659Z,19.65
2022-09-01T19:16:44.967Z,19.88
2022-09-01T19:19:26.497Z,19.38
2022-09-01T19:21:58.491Z,18.00
2022-09-01T19:24:32.069Z,19.02
2022-09-01T19:27:26.388Z,18.55
2022-09-01T19:30:07.930Z,20.00
2022-09-01T19:35:19.109Z,18.48
2022-09-01T19:37:53.140Z,18.67
2022-09-01T19:40:30.414Z,18.30
2022-09-01T19:43:13.861Z,18.30
2022-09-01T19:45:49.300Z,19.13
2022-09-01T19:48:45.762Z,18.15
2022-09-01T19:51:30.017Z,18.95
2022-09-01T19:54:18.080Z,18.85
2022-09-01T19:56:59.852Z,17.80
2022-09-01T19:59:50.114Z,17.52
2022-09-01T20:02:34.419Z,18.38
2022-09-01T20:05:58.533Z,18.27
2022-09-01T20:08:31.426Z,18.80
2022-09-01T20:11:47.177Z,20.10
2022-09-01T20:14:44.505Z,19.65
2022-09-01T20:17:35.935Z,20.13
2022-09-01T20:20:21.371Z,20.02
2022-09-01T20:23:03.516Z,18.98
2022-09-01T20:25:44.756Z,20.40
2022-09-01T20:28:44.072Z,19.90
2022-09-01T20:31:21.948Z,19.98
2022-09-01T20:34:19.301Z,19.95
2022-09-01T20:36:56.155Z,20.45
2022-09-01T20:39:52.754Z,19.65
2022-09-01T20:42:52.082Z,21.13
2022-09-01T20:45:28.264Z,20.63
2022-09-01T20:48:03.929Z,19.17
2022-09-01T20:51:02.058Z,19.08
2022-09-01T20:54:14.073Z,20.00
2022-09-01T20:57:14.623Z,20.08
2022-09-01T20:59:51.094Z,19.55
2022-09-01T21:02:39.102Z,19.00
2022-09-01T21:05:41.568Z,19.67
2022-09-01T21:08:35.449Z,20.98
2022-09-01T21:11:16.126Z,19.88
2022-09-01T21:14:15.416Z,20.57
2022-09-01T21:17:02.022Z,20.35
2022-09-01T21:19:37.986Z,20.52
2022-09-01T21:22:13.358Z,21.33
2022-09-01T21:24:46.934Z,21.58
2022-09-01T21:27:29.239Z,21.20
2022-09-01T21:30:14.610Z,20.02
2022-09-01T21:32:45.518Z,20.92
2022-09-01T21:35:18.976Z,21.30
2022-09-01T21:37:49.650Z,21.75
2022-09-01T21:40:22.144Z,21.97
2022-09-01T21:43:02.031Z,21.65
2022-09-01T21:45:35.853Z,20.40
2022-09-01T21:48:08.874Z,21.08
2022-09-01T21:50:39.103Z,21.67
2022-09-01T21:53:11.135Z,21.65
2022-09-01T21:55:41.309Z,21.95
2022-09-01T21:58:11.635Z,21.52
2022-09-01T22:00:43.000Z,20.73
2022-09-01T22:03:14.654Z,21.23
2022-09-01T22:05:46.995Z,20.52
2022-09-01T22:08:19.662Z,21.65
2022-09-01T22:10:54.083Z,20.67
2022-09-01T22:13:26.939Z,19.80
2022-09-01T22:15:57.687Z,19.73
2022-09-01T22:18:27.965Z,20.80
2022-09-01T22:21:06.866Z,19.80
2022-09-01T22:23:38.220Z,20.33
2022-09-01T22:26:15.404Z,19.98
2022-09-01T22:28:46.869Z,19.60
2022-09-01T22:31:19.778Z,20.13
2022-09-01T22:33:50.423Z,20.65
2022-09-01T22:36:38.992Z,21.07
2022-09-01T22:39:12.108Z,20.42
2022-09-01T22:41:43.682Z,21.63
2022-09-01T22:44:14.718Z,20.25
2022-09-01T22:46:45.231Z,20.52
2022-09-01T22:49:15.648Z,23.02
2022-09-01T22:51:46.518Z,23.00
2022-09-01T22:54:17.382Z,22.23
